Weather observations for the past three days for
Pierre, Pierre Regional Airport
Imperial (Metric)
Date Time (cdt) Wind (mph) Vis. (mi.) Weather Sky Cond. Temperature (ºF) Relative Humidity Wind Chill (°F) Heat Index (°F) Pressure Precipitation (in)
Air Dwpt 6 hour altimeter (in) sea level (mb) 1 hr 3 hr 6 hr
Max. Min.
06 16:53 SE 15 10.00 Fair CLR 90 61 38% 90 29.86 1009.3
06 15:53 S 14 10.00 Fair CLR 90 62.1 39% 90 29.87 1009.4
06 14:53 S 21 G 28 10.00 Fair and Breezy CLR 88 61 40% 88 29.88 1010.1
06 13:53 S 10 10.00 Fair CLR 84 64 51% 85 29.92 1011.3
06 12:53 SE 12 10.00 A Few Clouds FEW110 78.1 64.9 78.1 69.1 64% 80 29.95 1012.8 0.99
06 11:53 SE 9 10.00 Light Rain BKN100 OVC120 70 66 87% 30.01 1014.9 0.04
06 10:53 SE 14 G 25 1.50 Thunderstorm Heavy Rain OVC032 70 64 82% 30.04 1015.9 0.83
06 09:53 S 23 G 38 2.50 Thunderstorm Heavy Rain and Breezy SCT044 OVC060 71.1 66 84% 30 1014.3 0.12 0.12
06 08:53 Calm 10.00 A Few Clouds FEW021 75 72 90% 74 29.93 1011.9
06 07:53 Calm 10.00 Thunderstorm in Vicinity CLR 73 71.1 94% 29.92 1011.7
06 06:53 E 3 10.00 Fair CLR 75 71.1 79 75 88% 75 29.89 1010.4
06 05:53 E 5 10.00 Fair CLR 75.9 72 88% 76 29.89 1010.3
06 04:53 SE 8 10.00 Fair CLR 78.1 71.1 79% 80 29.9 1010.3
06 03:53 SE 6 10.00 Fair CLR 78.1 70 76% 80 29.89 1010.1
06 02:53 SE 9 10.00 Fair CLR 79 70 74% 82 29.9 1010.2
06 01:53 S 13 10.00 Fair CLR 79 69.1 72% 82 29.89 1010.1
06 00:53 SE 10 10.00 Fair CLR 79 69.1 88 79 72% 82 29.88 1009.9
05 23:53 SE 10 10.00 Fair CLR 79 70 74% 82 29.89 1010.4
05 22:53 SE 10 10.00 Fair CLR 79 71.1 77% 82 29.91 1011.1
05 21:53 E 13 10.00 Fair CLR 81 71.1 72% 85 29.91 1011.1
05 19:53 NE 16 G 28 10.00 Fair CLR 82 68 63% 85 29.88 1010.3
05 18:53 NE 7 10.00 Fair CLR 88 64.9 102 88 46% 90 29.87 1009.7
05 17:53 NW 13 10.00 Fair CLR 95 64.9 37% 98 29.85 1009.0
05 16:53 SW 17 G 24 10.00 Fair CLR 100.9 63 29% 103 29.82 1007.6
05 15:53 S 12 G 22 10.00 Fair CLR 100.9 61 27% 102 29.82 1007.6
05 12:53 S 15 10.00 Fair CLR 91.9 66.9 91.9 71.1 44% 95 29.85 1008.9
05 11:53 S 16 10.00 Fair CLR 87.1 66.9 51% 90 29.87 1009.6
05 10:53 S 23 G 31 10.00 Fair and Breezy CLR 82 64.9 56% 84 29.89 1010.6
05 09:53 SE 20 G 31 10.00 Fair CLR 78.1 63 60% 80 29.9 1010.9
05 08:53 SE 18 G 29 10.00 Fair CLR 75 61 62% 77 29.91 1011.2
05 07:53 SE 20 G 28 10.00 Fair CLR 72 61 68% 29.9 1011.1
05 06:53 SE 17 G 25 10.00 Fair CLR 72 61 78.1 70 68% 29.9 1010.7
05 05:53 SE 14 G 24 10.00 Fair CLR 71.1 62.1 73% 29.88 1010.0
05 04:53 SE 23 G 33 10.00 Fair and Breezy CLR 73.9 64.9 74% 29.86 1009.2
05 03:53 SE 16 G 25 10.00 Fair CLR 78.1 73 85% 81 29.82 1007.9
05 02:53 E 12 G 18 10.00 Fair CLR 77 73 88% 78 29.82 1008.0
05 01:53 E 7 10.00 Fair CLR 75.9 71.1 85% 76 29.83 1008.2
05 00:53 E 9 10.00 Partly Cloudy SCT090 78.1 70 87.1 75 76% 80 29.83 1008.4
04 23:53 E 10 10.00 Mostly Cloudy BKN080 77 68 74% 79 29.83 1008.4
04 22:53 E 12 10.00 Fair CLR 77 66.9 71% 79 29.84 1008.9
04 21:53 E 9 10.00 Fair CLR 75.9 68 77% 77 29.84 1009.0
04 20:53 E 13 10.00 Fair CLR 79 68 69% 81 29.83 1008.7
04 19:53 E 15 G 23 10.00 Fair CLR 84 71.1 65% 89 29.81 1008.2
04 18:53 E 13 10.00 Fair CLR 87.1 68 93.9 84.9 53% 91 29.81 1008.2
04 17:53 E 17 10.00 Fair CLR 90 66.9 47% 93 29.81 1008.0
04 16:53 SE 16 10.00 Fair CLR 90 66.9 47% 93 29.82 1008.1
04 15:53 SE 14 10.00 Fair CLR 88 64.9 46% 90 29.84 1008.8
04 14:53 SE 7 10.00 Light Rain FEW046 SCT090 SCT110 86 66 51% 88 29.84 1008.8
04 13:53 E 14 10.00 Fair CLR 84.9 64 50% 86 29.84 1009.0
04 12:53 SE 16 10.00 A Few Clouds FEW090 84.9 64.9 84.9 62.1 51% 87 29.87 1009.9
04 11:53 SE 9 10.00 Fair CLR 81 64.9 58% 83 29.9 1011.0
04 09:53 E 8 10.00 Fair CLR 73 64.9 76% 29.88 1010.5
04 08:53 E 6 10.00 Fair CLR 66 63 90% 29.89 1010.9
04 07:53 E 9 10.00 Fair CLR 63 61 93% 29.86 1009.9
04 06:53 E 10 10.00 Fair CLR 62.1 61 68 62.1 96% 29.83 1008.8
04 05:53 E 9 10.00 Fair CLR 63 62.1 97% 29.84 1008.9
04 04:53 E 7 10.00 Fair CLR 64.9 63 93% 29.84 1008.6
04 03:53 E 8 10.00 Fair CLR 64.9 63 93% 29.83 1008.2
04 02:53 E 7 10.00 Fair CLR 64.9 63 93% 29.81 1007.8
04 01:53 NE 10 10.00 Fair CLR 66.9 64 91% 29.8 1007.2
04 00:53 NE 9 10.00 Fair CLR 66 62.1 90 64.9 87% 29.8 1007.4
03 23:53 E 8 10.00 Fair CLR 71.1 63 76% 29.8 1007.2
03 22:53 NE 7 10.00 Fair CLR 69.1 62.1 78% 29.78 1006.8
03 21:53 NE 13 G 20 10.00 Fair CLR 73 62.1 69% 29.77 1006.5
03 20:53 NE 12 10.00 Fair CLR 78.1 61 56% 80 29.75 1006.0
03 19:53 N 12 10.00 Fair CLR 82.9 57.9 43% 83 29.74 1005.5
03 17:53 N 18 10.00 Fair CLR 93.9 54 26% 92 29.72 1004.4
Date Time (cdt) Wind (mph) Vis. (mi.) Weather Sky Cond. Air Dwpt Max. Min. Relative Humidity Wind Chill (°F) Heat Index (°F) altimeter (in) sea level (mb) 1 hr 3 hr 6 hr
6 hour
Temperature (ºF) Pressure Precipitation (in)